Time;durP1;ratioP1;P1;durP2;ratioP2;P2;SDS_P1;SDS_P2;PMS_P1;PMS_P2;Temp;Humidity;BMP_temperature;BMP_pressure;BME280_temperature;BME280_humidity;BME280_pressure;Samples;Min_cycle;Max_cycle;Signal;HPM_P1;HPM_P2
2022/08/26 00:02:04;;;;;;;7.43;2.20;;;;;;;;;;5001277;28;20084;-78
2022/08/26 00:04:30;;;;;;;5.22;1.85;;;;;;;;;;5025050;28;20060;-77
2022/08/26 00:06:57;;;;;;;5.70;2.05;;;;;;;;;;5025723;28;20033;-77
2022/08/26 00:09:24;;;;;;;7.97;2.00;;;;;;;;;;5020510;28;20088;-79
2022/08/26 00:11:50;;;;;;;6.32;2.00;;;;;;;;;;5025068;28;20037;-77
2022/08/26 00:14:16;;;;;;;6.78;2.15;;;;;;;;;;5021793;28;20048;-77
2022/08/26 00:16:42;;;;;;;4.35;1.90;;;;;;;;;;5007360;28;20133;-78
2022/08/26 00:19:09;;;;;;;5.28;1.77;;;;;;;;;;5007718;28;20164;-77
2022/08/26 00:21:35;;;;;;;4.97;2.10;;;;;;;;;;5022486;28;20042;-77
2022/08/26 00:24:01;;;;;;;6.15;1.80;;;;;;;;;;5022588;28;20056;-77
2022/08/26 00:26:27;;;;;;;4.30;1.75;;;;;;;;;;5024911;28;20051;-77
2022/08/26 00:28:53;;;;;;;7.15;2.25;;;;;;;;;;5003993;28;20045;-77
2022/08/26 00:31:19;;;;;;;7.05;1.92;;;;;;;;;;5023100;28;20453;-77
2022/08/26 00:33:45;;;;;;;4.25;1.83;;;;;;;;;;5007159;28;20046;-77
2022/08/26 00:36:12;;;;;;;4.35;1.65;;;;;;;;;;5005711;28;20096;-76
2022/08/26 00:38:38;;;;;;;6.45;1.90;;;;;;;;;;5004769;28;20038;-77
2022/08/26 00:41:04;;;;;;;7.50;2.00;;;;;;;;;;5025190;28;20137;-77
2022/08/26 00:43:32;;;;;;;6.50;2.08;;;;;;;;;;5026902;28;20042;-77
2022/08/26 00:46:05;;;;;;;6.75;1.88;;;;;;;;;;5001509;28;20080;-79
2022/08/26 00:48:32;;;;;;;5.78;1.83;;;;;;;;;;5024498;28;20136;-78
2022/08/26 00:51:01;;;;;;;4.70;1.73;;;;;;;;;;5022204;28;20048;-78
2022/08/26 00:53:30;;;;;;;4.05;1.70;;;;;;;;;;5029959;28;20049;-78
2022/08/26 00:56:06;;;;;;;6.18;1.50;;;;;;;;;;5012791;28;20041;-78
2022/08/26 00:58:33;;;;;;;5.15;1.70;;;;;;;;;;5027580;28;20045;-77
2022/08/26 01:00:59;;;;;;;5.30;1.95;;;;;;;;;;5003028;28;20054;-78
2022/08/26 01:03:26;;;;;;;5.15;2.10;;;;;;;;;;5008911;28;20168;-77
2022/08/26 01:05:56;;;;;;;3.35;1.40;;;;;;;;;;5008000;28;20244;-77
2022/08/26 01:08:23;;;;;;;7.63;1.80;;;;;;;;;;5008599;28;20511;-78
2022/08/26 01:10:50;;;;;;;6.95;1.70;;;;;;;;;;5018068;28;20043;-77
2022/08/26 01:13:16;;;;;;;3.30;1.50;;;;;;;;;;5009533;28;20042;-78
2022/08/26 01:15:44;;;;;;;7.53;1.65;;;;;;;;;;5008218;28;20050;-77
2022/08/26 01:18:10;;;;;;;5.82;1.60;;;;;;;;;;5025014;28;20068;-77
2022/08/26 01:20:45;;;;;;;3.05;1.55;;;;;;;;;;5004755;28;20045;-77
2022/08/26 01:23:13;;;;;;;7.97;1.60;;;;;;;;;;5005921;28;20230;-77
2022/08/26 01:25:41;;;;;;;6.55;1.88;;;;;;;;;;5025021;28;20049;-77
2022/08/26 01:28:09;;;;;;;4.10;1.80;;;;;;;;;;5024753;28;20038;-77
2022/08/26 01:30:37;;;;;;;3.25;1.38;;;;;;;;;;5004979;28;20037;-77
2022/08/26 01:33:06;;;;;;;6.00;2.15;;;;;;;;;;5024395;28;20048;-76
2022/08/26 01:35:32;;;;;;;6.97;2.05;;;;;;;;;;5009969;28;20088;-77
2022/08/26 01:38:01;;;;;;;8.00;1.98;;;;;;;;;;5007719;28;20132;-77
2022/08/26 01:40:30;;;;;;;5.07;1.77;;;;;;;;;;5004148;28;20045;-77
2022/08/26 01:42:56;;;;;;;5.40;2.05;;;;;;;;;;5007384;28;20041;-77
2022/08/26 01:45:24;;;;;;;6.30;1.90;;;;;;;;;;5009137;28;20413;-78
2022/08/26 01:47:52;;;;;;;5.43;1.60;;;;;;;;;;5010249;28;20049;-77
2022/08/26 01:50:20;;;;;;;7.63;1.83;;;;;;;;;;5025838;28;20037;-77
2022/08/26 01:52:47;;;;;;;6.43;1.98;;;;;;;;;;5020226;28;21473;-77
2022/08/26 01:55:14;;;;;;;5.13;1.90;;;;;;;;;;5006151;28;20045;-77
2022/08/26 01:57:42;;;;;;;6.22;2.15;;;;;;;;;;5022953;28;20049;-77
2022/08/26 02:00:12;;;;;;;7.22;2.10;;;;;;;;;;5007778;28;20046;-77
2022/08/26 02:02:38;;;;;;;5.63;1.83;;;;;;;;;;5022173;28;20462;-77
2022/08/26 02:05:06;;;;;;;7.28;2.13;;;;;;;;;;5026963;28;20080;-77
2022/08/26 02:07:32;;;;;;;7.35;2.10;;;;;;;;;;5007291;28;20044;-77
2022/08/26 02:09:58;;;;;;;6.97;2.30;;;;;;;;;;5008176;28;20045;-78
2022/08/26 02:12:25;;;;;;;6.00;2.13;;;;;;;;;;5006898;28;21361;-77
2022/08/26 02:14:53;;;;;;;8.88;2.20;;;;;;;;;;5023157;28;20058;-77
2022/08/26 02:17:25;;;;;;;6.78;2.22;;;;;;;;;;5025646;28;20073;-77
2022/08/26 02:19:51;;;;;;;5.05;2.10;;;;;;;;;;5009185;28;20041;-77
2022/08/26 02:22:19;;;;;;;5.97;2.17;;;;;;;;;;5028416;28;20049;-76
2022/08/26 02:24:48;;;;;;;6.00;2.10;;;;;;;;;;5015847;28;20045;-78
2022/08/26 02:27:15;;;;;;;4.93;1.92;;;;;;;;;;5026257;28;20156;-77
2022/08/26 02:29:43;;;;;;;6.53;2.05;;;;;;;;;;5004038;28;20049;-78
2022/08/26 02:32:10;;;;;;;5.45;2.05;;;;;;;;;;5025672;28;20055;-77
2022/08/26 02:34:36;;;;;;;8.55;2.10;;;;;;;;;;5001949;28;20140;-77
2022/08/26 02:37:04;;;;;;;7.88;2.13;;;;;;;;;;5006680;28;20049;-78
2022/08/26 02:39:31;;;;;;;3.10;1.80;;;;;;;;;;5009156;28;20041;-77
2022/08/26 02:41:58;;;;;;;4.63;1.90;;;;;;;;;;5022178;28;20060;-77
2022/08/26 02:44:24;;;;;;;7.63;2.25;;;;;;;;;;5026234;28;20098;-78
2022/08/26 02:46:51;;;;;;;6.35;2.05;;;;;;;;;;5006736;28;20045;-78
2022/08/26 02:49:18;;;;;;;7.20;2.30;;;;;;;;;;5006561;28;20049;-78
2022/08/26 02:51:45;;;;;;;6.75;1.70;;;;;;;;;;5004482;28;20242;-78
2022/08/26 02:54:11;;;;;;;6.00;1.58;;;;;;;;;;5004949;28;20116;-77
2022/08/26 02:56:37;;;;;;;6.70;1.95;;;;;;;;;;5002865;28;20094;-78
2022/08/26 02:59:03;;;;;;;4.05;1.90;;;;;;;;;;5023799;28;20405;-77
2022/08/26 03:01:31;;;;;;;5.93;1.80;;;;;;;;;;5020073;28;20462;-77
2022/08/26 03:03:57;;;;;;;4.10;1.70;;;;;;;;;;5000868;28;20401;-77
2022/08/26 03:06:23;;;;;;;4.60;1.90;;;;;;;;;;5022615;28;20048;-77
2022/08/26 03:08:50;;;;;;;5.45;2.10;;;;;;;;;;5026761;28;20067;-78
2022/08/26 03:11:17;;;;;;;5.75;2.28;;;;;;;;;;5001713;28;20045;-77
2022/08/26 03:13:43;;;;;;;4.03;1.70;;;;;;;;;;5024942;28;20049;-77
2022/08/26 03:16:09;;;;;;;4.93;1.67;;;;;;;;;;5026693;28;20477;-77
2022/08/26 03:18:35;;;;;;;5.18;2.00;;;;;;;;;;5009394;28;20481;-77
2022/08/26 03:21:06;;;;;;;5.53;2.00;;;;;;;;;;5023683;28;20048;-77
2022/08/26 03:23:32;;;;;;;5.72;1.88;;;;;;;;;;5005223;28;20056;-77
2022/08/26 03:25:58;;;;;;;5.82;1.77;;;;;;;;;;5026781;28;20119;-77
2022/08/26 03:28:24;;;;;;;5.50;1.98;;;;;;;;;;5002394;28;20092;-77
2022/08/26 03:30:51;;;;;;;5.60;2.20;;;;;;;;;;5001218;28;20041;-77
2022/08/26 03:33:18;;;;;;;8.90;2.42;;;;;;;;;;5023135;28;20053;-76
2022/08/26 03:35:46;;;;;;;5.90;1.98;;;;;;;;;;5020384;28;20049;-77
2022/08/26 03:38:12;;;;;;;7.28;2.47;;;;;;;;;;5003400;28;20366;-76
2022/08/26 03:40:39;;;;;;;7.40;2.22;;;;;;;;;;5008222;28;20615;-77
2022/08/26 03:43:06;;;;;;;7.50;2.63;;;;;;;;;;5026764;28;20041;-77
2022/08/26 03:45:32;;;;;;;7.28;2.20;;;;;;;;;;5019329;28;20127;-77
2022/08/26 03:47:58;;;;;;;6.38;1.67;;;;;;;;;;5008498;28;20049;-77
2022/08/26 03:50:25;;;;;;;8.98;1.90;;;;;;;;;;5008905;28;20131;-77
2022/08/26 03:52:52;;;;;;;4.45;1.95;;;;;;;;;;5004476;28;20077;-77
2022/08/26 03:55:18;;;;;;;6.60;1.90;;;;;;;;;;4998487;28;20046;-76
2022/08/26 03:57:44;;;;;;;5.30;1.90;;;;;;;;;;5023249;28;20049;-77
2022/08/26 04:00:14;;;;;;;7.50;1.83;;;;;;;;;;5021042;28;20220;-77
2022/08/26 04:02:42;;;;;;;5.82;2.05;;;;;;;;;;5006510;28;20072;-78
2022/08/26 04:05:08;;;;;;;7.07;2.03;;;;;;;;;;5006486;28;20041;-76
2022/08/26 04:07:35;;;;;;;6.75;2.10;;;;;;;;;;5006429;28;20057;-76
2022/08/26 04:10:01;;;;;;;5.32;1.90;;;;;;;;;;5008249;28;20171;-77
2022/08/26 04:12:28;;;;;;;3.90;2.13;;;;;;;;;;5020966;28;20033;-77
2022/08/26 04:14:54;;;;;;;6.20;1.90;;;;;;;;;;5000699;28;20049;-76
2022/08/26 04:17:20;;;;;;;5.10;1.95;;;;;;;;;;5022736;28;20042;-76
2022/08/26 04:19:46;;;;;;;5.95;2.28;;;;;;;;;;5026743;28;20037;-77
2022/08/26 04:22:12;;;;;;;4.68;1.92;;;;;;;;;;5025250;28;20405;-76
2022/08/26 04:24:38;;;;;;;4.95;1.83;;;;;;;;;;5009747;28;20050;-77
2022/08/26 04:27:05;;;;;;;5.57;1.52;;;;;;;;;;5029665;28;20068;-77
2022/08/26 04:29:31;;;;;;;3.70;1.80;;;;;;;;;;5012023;28;20371;-79
2022/08/26 04:31:58;;;;;;;5.53;2.10;;;;;;;;;;5009629;28;20690;-76
2022/08/26 04:34:25;;;;;;;4.53;1.63;;;;;;;;;;5007154;28;20611;-78
2022/08/26 04:36:51;;;;;;;6.80;1.90;;;;;;;;;;5027160;28;20404;-78
2022/08/26 04:39:19;;;;;;;8.88;2.20;;;;;;;;;;5028824;28;20045;-77
2022/08/26 04:41:46;;;;;;;6.03;2.08;;;;;;;;;;5025534;28;20124;-78
2022/08/26 04:44:12;;;;;;;5.30;1.52;;;;;;;;;;5026605;28;20052;-79
2022/08/26 04:46:38;;;;;;;4.63;1.80;;;;;;;;;;5005874;28;20057;-77
2022/08/26 04:49:07;;;;;;;6.28;1.92;;;;;;;;;;5019826;28;20120;-77
2022/08/26 04:51:33;;;;;;;6.43;1.77;;;;;;;;;;5027279;28;20053;-78
2022/08/26 04:53:59;;;;;;;6.05;1.80;;;;;;;;;;5012651;28;20386;-79
2022/08/26 04:56:26;;;;;;;3.72;1.55;;;;;;;;;;5027534;28;20059;-78
2022/08/26 04:58:52;;;;;;;6.82;2.08;;;;;;;;;;5013647;28;20051;-78
2022/08/26 05:01:19;;;;;;;4.68;1.77;;;;;;;;;;5015113;28;20061;-78
2022/08/26 05:03:46;;;;;;;5.60;1.80;;;;;;;;;;5026823;28;20045;-78
2022/08/26 05:06:12;;;;;;;4.57;1.85;;;;;;;;;;5026164;28;20462;-79
2022/08/26 05:08:38;;;;;;;8.80;2.08;;;;;;;;;;5026586;28;20050;-78
2022/08/26 05:11:05;;;;;;;6.28;1.50;;;;;;;;;;5029531;28;20045;-78
2022/08/26 05:13:33;;;;;;;5.30;1.92;;;;;;;;;;5034527;28;20100;-77
2022/08/26 05:16:02;;;;;;;6.13;1.90;;;;;;;;;;5020633;28;20562;-78
2022/08/26 05:18:29;;;;;;;5.85;2.15;;;;;;;;;;5010237;28;20045;-77
2022/08/26 05:20:55;;;;;;;7.53;2.50;;;;;;;;;;5038743;28;20049;-77
2022/08/26 05:23:22;;;;;;;5.75;1.70;;;;;;;;;;5005891;28;20060;-77
2022/08/26 05:25:49;;;;;;;5.50;1.70;;;;;;;;;;5025002;28;20072;-77
2022/08/26 05:28:16;;;;;;;4.03;1.70;;;;;;;;;;5028444;28;20041;-78
2022/08/26 05:30:43;;;;;;;8.10;2.10;;;;;;;;;;5007288;28;20045;-77
2022/08/26 05:33:09;;;;;;;6.07;1.50;;;;;;;;;;5033867;28;20033;-78
2022/08/26 05:35:37;;;;;;;5.38;1.80;;;;;;;;;;5030258;28;20049;-76
2022/08/26 05:38:04;;;;;;;6.22;2.10;;;;;;;;;;5022656;28;20045;-77
2022/08/26 05:40:32;;;;;;;5.38;1.77;;;;;;;;;;5009143;28;20470;-78
2022/08/26 05:42:59;;;;;;;5.60;1.67;;;;;;;;;;5006269;28;20465;-79
2022/08/26 05:45:25;;;;;;;4.95;1.80;;;;;;;;;;5023654;28;20080;-79
2022/08/26 05:47:51;;;;;;;5.55;1.85;;;;;;;;;;5028639;28;20038;-79
2022/08/26 05:50:20;;;;;;;3.97;1.80;;;;;;;;;;5011791;28;20099;-78
2022/08/26 05:52:47;;;;;;;4.70;1.63;;;;;;;;;;5022749;28;20049;-79
2022/08/26 05:55:13;;;;;;;4.90;1.70;;;;;;;;;;5018663;28;20132;-78
2022/08/26 05:57:39;;;;;;;2.58;1.70;;;;;;;;;;5011874;28;20095;-79
2022/08/26 06:00:06;;;;;;;4.60;1.60;;;;;;;;;;5023707;28;20045;-79
2022/08/26 06:02:32;;;;;;;7.28;2.40;;;;;;;;;;5028854;28;20049;-78
2022/08/26 06:04:57;;;;;;;4.63;1.70;;;;;;;;;;5028639;28;20929;-78
2022/08/26 06:08:09;;;;;;;6.22;1.80;;;;;;;;;;5008520;28;20053;-78
2022/08/26 06:10:13;;;;;;;5.88;1.70;;;;;;;;;;5029418;28;20128;-77
2022/08/26 06:12:40;;;;;;;4.38;1.55;;;;;;;;;;5003512;28;20045;-78
2022/08/26 06:15:06;;;;;;;6.18;1.98;;;;;;;;;;5024129;28;20562;-78
2022/08/26 06:17:32;;;;;;;4.88;1.77;;;;;;;;;;5018883;28;20045;-79
2022/08/26 06:19:58;;;;;;;5.72;1.70;;;;;;;;;;5009197;28;20489;-77
2022/08/26 06:28:07;;;;;;;4.55;1.63;;;;;;;;;;4970980;28;20042;-78
2022/08/26 06:30:37;;;;;;;4.88;1.48;;;;;;;;;;5004953;28;20041;-78
2022/08/26 06:33:04;;;;;;;7.10;1.77;;;;;;;;;;5028669;28;20500;-78
2022/08/26 06:35:30;;;;;;;4.07;1.65;;;;;;;;;;5024022;28;20084;-79
2022/08/26 06:37:56;;;;;;;5.35;1.35;;;;;;;;;;5026833;28;20068;-79
2022/08/26 06:40:22;;;;;;;2.85;1.80;;;;;;;;;;4999448;28;20057;-78
2022/08/26 06:42:48;;;;;;;5.47;1.60;;;;;;;;;;5016718;28;20048;-78
2022/08/26 06:45:14;;;;;;;4.38;1.50;;;;;;;;;;5024310;28;20128;-78
2022/08/26 06:47:40;;;;;;;5.88;1.70;;;;;;;;;;5031571;28;20120;-81
2022/08/26 06:50:06;;;;;;;3.33;1.40;;;;;;;;;;5022370;28;20037;-81
2022/08/26 06:52:32;;;;;;;6.65;1.83;;;;;;;;;;5029985;28;20045;-82
2022/08/26 06:54:58;;;;;;;5.40;1.90;;;;;;;;;;5030437;28;20702;-82
2022/08/26 06:57:24;;;;;;;2.85;1.50;;;;;;;;;;5015131;28;20049;-81
2022/08/26 06:59:52;;;;;;;5.57;1.60;;;;;;;;;;5009180;28;20053;-82
2022/08/26 07:02:18;;;;;;;4.38;1.70;;;;;;;;;;5028239;28;20387;-81
2022/08/26 07:04:44;;;;;;;4.07;1.50;;;;;;;;;;5032092;28;20046;-83
2022/08/26 07:07:13;;;;;;;2.47;1.23;;;;;;;;;;4996839;28;20050;-83
2022/08/26 07:09:39;;;;;;;3.53;1.67;;;;;;;;;;5020225;28;20128;-83
2022/08/26 07:12:05;;;;;;;3.33;1.63;;;;;;;;;;5001221;28;20136;-81
2022/08/26 07:14:33;;;;;;;4.90;1.60;;;;;;;;;;5005849;28;20497;-82
2022/08/26 07:17:00;;;;;;;5.38;1.70;;;;;;;;;;5010430;28;20080;-82
2022/08/26 07:19:26;;;;;;;6.45;1.65;;;;;;;;;;5007906;28;20056;-82
2022/08/26 07:21:52;;;;;;;6.25;1.83;;;;;;;;;;5010238;28;20041;-81
2022/08/26 07:24:18;;;;;;;6.55;1.75;;;;;;;;;;5011537;28;20127;-79
2022/08/26 07:26:44;;;;;;;6.20;1.70;;;;;;;;;;5008031;28;20470;-81
2022/08/26 07:29:11;;;;;;;6.45;1.60;;;;;;;;;;5006881;28;20048;-81
2022/08/26 07:31:37;;;;;;;3.30;1.63;;;;;;;;;;5009752;28;20473;-80
2022/08/26 07:34:05;;;;;;;5.88;2.13;;;;;;;;;;5011219;28;20053;-80
2022/08/26 07:36:31;;;;;;;5.78;1.65;;;;;;;;;;5013943;28;20065;-80
2022/08/26 07:38:57;;;;;;;3.72;1.67;;;;;;;;;;4998360;28;20064;-80
2022/08/26 07:41:24;;;;;;;2.15;1.30;;;;;;;;;;5005349;28;20060;-81
2022/08/26 07:43:51;;;;;;;5.35;1.75;;;;;;;;;;5026524;28;20043;-82
2022/08/26 07:46:19;;;;;;;5.38;1.60;;;;;;;;;;5010598;28;20392;-80
2022/08/26 07:48:47;;;;;;;5.03;1.70;;;;;;;;;;5018529;28;20041;-81
2022/08/26 07:51:14;;;;;;;3.70;1.70;;;;;;;;;;5008400;28;20056;-82
2022/08/26 07:53:40;;;;;;;3.30;1.52;;;;;;;;;;5023527;28;20481;-81
2022/08/26 07:56:06;;;;;;;4.78;1.45;;;;;;;;;;5007237;28;20037;-82
2022/08/26 07:58:32;;;;;;;5.40;1.80;;;;;;;;;;5007267;28;20037;-81
2022/08/26 08:00:58;;;;;;;4.40;1.35;;;;;;;;;;5025259;28;20060;-81
2022/08/26 08:03:24;;;;;;;4.55;1.40;;;;;;;;;;5028371;28;20050;-81
2022/08/26 08:05:50;;;;;;;2.83;1.40;;;;;;;;;;4996788;28;20616;-80
2022/08/26 08:08:16;;;;;;;5.35;1.52;;;;;;;;;;5007024;28;20045;-81
2022/08/26 08:10:43;;;;;;;2.80;1.30;;;;;;;;;;5001443;28;20411;-82
2022/08/26 08:13:09;;;;;;;3.92;1.55;;;;;;;;;;5007283;28;20041;-81
2022/08/26 08:15:36;;;;;;;5.47;1.50;;;;;;;;;;5028210;28;20046;-81
2022/08/26 08:18:02;;;;;;;4.38;1.30;;;;;;;;;;5024136;28;20044;-81
2022/08/26 08:20:28;;;;;;;4.72;1.50;;;;;;;;;;5008327;28;20045;-80
2022/08/26 08:22:55;;;;;;;3.13;1.20;;;;;;;;;;5008260;28;20091;-82
2022/08/26 08:25:21;;;;;;;3.90;1.48;;;;;;;;;;5019951;28;22129;-82
2022/08/26 08:27:47;;;;;;;2.28;1.38;;;;;;;;;;5003308;28;20056;-81
2022/08/26 08:30:15;;;;;;;3.72;1.25;;;;;;;;;;5019207;28;20076;-82
2022/08/26 08:32:44;;;;;;;3.05;1.25;;;;;;;;;;5027796;28;20045;-82
2022/08/26 08:35:12;;;;;;;4.93;1.58;;;;;;;;;;5003702;28;20123;-81
2022/08/26 08:37:39;;;;;;;5.15;1.70;;;;;;;;;;5009881;28;20038;-81
2022/08/26 08:40:07;;;;;;;5.95;1.85;;;;;;;;;;4987346;28;20666;-81
2022/08/26 08:42:37;;;;;;;5.00;1.52;;;;;;;;;;5003331;28;20104;-81
2022/08/26 08:45:08;;;;;;;4.35;1.60;;;;;;;;;;5011514;28;20137;-82
2022/08/26 08:47:43;;;;;;;2.75;1.48;;;;;;;;;;5005216;28;20046;-82
2022/08/26 08:50:30;;;;;;;3.15;1.10;;;;;;;;;;5005941;28;20048;-82
2022/08/26 08:53:14;;;;;;;3.15;1.20;;;;;;;;;;5026749;28;20048;-82
2022/08/26 08:55:49;;;;;;;2.55;1.20;;;;;;;;;;5001438;28;20050;-82
2022/08/26 08:58:20;;;;;;;6.45;1.30;;;;;;;;;;5009360;28;20045;-82
2022/08/26 09:00:49;;;;;;;3.20;1.23;;;;;;;;;;5007850;28;20085;-82
2022/08/26 09:03:23;;;;;;;2.13;1.38;;;;;;;;;;5010146;28;20128;-81
2022/08/26 09:05:50;;;;;;;3.13;1.30;;;;;;;;;;5010491;28;20045;-82
2022/08/26 09:08:22;;;;;;;6.70;1.60;;;;;;;;;;4983467;28;20061;-80
2022/08/26 09:10:52;;;;;;;4.05;1.50;;;;;;;;;;4999920;28;20228;-81
2022/08/26 09:13:19;;;;;;;4.38;1.40;;;;;;;;;;5029228;28;20046;-81
2022/08/26 09:16:06;;;;;;;3.63;1.30;;;;;;;;;;5030714;28;20927;-80
2022/08/26 09:18:48;;;;;;;5.38;1.45;;;;;;;;;;5010992;28;20046;-81
2022/08/26 09:21:15;;;;;;;4.68;1.25;;;;;;;;;;5023761;28;20555;-80
2022/08/26 09:23:43;;;;;;;2.60;1.30;;;;;;;;;;5012324;28;20053;-81
2022/08/26 09:26:19;;;;;;;1.83;1.40;;;;;;;;;;5007292;28;20037;-82
2022/08/26 09:28:55;;;;;;;3.95;1.45;;;;;;;;;;4995092;28;20458;-81
2022/08/26 09:31:21;;;;;;;2.58;1.15;;;;;;;;;;5021180;28;20056;-81
2022/08/26 09:33:47;;;;;;;3.55;1.20;;;;;;;;;;5012666;28;20065;-80
2022/08/26 09:36:32;;;;;;;2.97;1.30;;;;;;;;;;5016385;28;20081;-80
2022/08/26 09:38:58;;;;;;;2.28;1.10;;;;;;;;;;5029765;28;20041;-81
2022/08/26 09:41:27;;;;;;;3.75;1.42;;;;;;;;;;5022366;28;20050;-80
2022/08/26 09:44:07;;;;;;;2.00;1.10;;;;;;;;;;5006907;28;20453;-81
2022/08/26 09:46:34;;;;;;;2.63;1.05;;;;;;;;;;5008725;28;20060;-82
2022/08/26 09:49:24;;;;;;;3.15;1.27;;;;;;;;;;5031377;28;20078;-81
2022/08/26 09:52:02;;;;;;;1.83;1.20;;;;;;;;;;4992903;28;20210;-81
2022/08/26 09:54:28;;;;;;;3.15;1.27;;;;;;;;;;5010665;28;20065;-81
2022/08/26 09:57:09;;;;;;;1.90;1.27;;;;;;;;;;5025005;28;20069;-81
2022/08/26 09:59:35;;;;;;;4.47;1.50;;;;;;;;;;5001185;28;20429;-82
2022/08/26 10:02:23;;;;;;;3.88;1.20;;;;;;;;;;5013921;28;20092;-80
2022/08/26 10:04:55;;;;;;;1.15;1.02;;;;;;;;;;4992529;28;20532;-81
2022/08/26 10:07:41;;;;;;;7.13;1.75;;;;;;;;;;5036087;28;20041;-81
2022/08/26 10:10:10;;;;;;;2.20;1.38;;;;;;;;;;5031392;28;20048;-81
2022/08/26 10:12:38;;;;;;;3.17;1.50;;;;;;;;;;5011984;28;20095;-81
2022/08/26 10:15:08;;;;;;;5.93;1.73;;;;;;;;;;5005504;28;20489;-81
2022/08/26 10:17:45;;;;;;;9.35;1.92;;;;;;;;;;5010349;28;20413;-80
2022/08/26 10:20:13;;;;;;;5.07;1.77;;;;;;;;;;5012215;28;20041;-82
2022/08/26 10:22:42;;;;;;;3.17;1.63;;;;;;;;;;5019668;28;20049;-82
2022/08/26 10:25:12;;;;;;;3.42;1.50;;;;;;;;;;5009710;28;20135;-81
2022/08/26 10:28:01;;;;;;;5.32;1.70;;;;;;;;;;5007596;28;20049;-81
2022/08/26 10:30:30;;;;;;;4.88;1.75;;;;;;;;;;5010525;28;20053;-81
2022/08/26 10:33:00;;;;;;;3.17;1.40;;;;;;;;;;5012853;28;20037;-82
2022/08/26 10:35:26;;;;;;;3.08;1.40;;;;;;;;;;5008247;28;20080;-81
2022/08/26 10:37:55;;;;;;;3.45;1.40;;;;;;;;;;4988546;28;20049;-82
2022/08/26 10:40:30;;;;;;;5.25;1.48;;;;;;;;;;5001563;28;20092;-91
2022/08/26 10:43:16;;;;;;;4.00;1.42;;;;;;;;;;5013298;28;20069;-90
2022/08/26 10:45:43;;;;;;;3.55;1.48;;;;;;;;;;5006940;28;20057;-90
2022/08/26 10:48:12;;;;;;;3.08;1.50;;;;;;;;;;5008952;28;20149;-89
2022/08/26 10:50:40;;;;;;;4.43;1.70;;;;;;;;;;5030808;28;20117;-91
2022/08/26 10:53:25;;;;;;;4.45;1.50;;;;;;;;;;5018548;28;20124;-89
2022/08/26 10:55:51;;;;;;;5.82;1.50;;;;;;;;;;5002532;28;20055;-89
2022/08/26 10:58:26;;;;;;;3.38;1.40;;;;;;;;;;5027259;28;20124;-91
2022/08/26 11:04:02;;;;;;;2.63;1.40;;;;;;;;;;5021058;28;20052;-91
2022/08/26 11:06:30;;;;;;;5.03;1.40;;;;;;;;;;5014257;28;20049;-87
2022/08/26 11:09:03;;;;;;;5.65;2.10;;;;;;;;;;5033951;28;20050;-91
2022/08/26 11:11:39;;;;;;;2.38;1.33;;;;;;;;;;5012162;28;20064;-94
2022/08/26 11:14:06;;;;;;;2.40;1.23;;;;;;;;;;5033530;28;20048;-96
2022/08/26 11:16:34;;;;;;;4.10;1.50;;;;;;;;;;5026236;28;20093;-92
2022/08/26 11:19:00;;;;;;;3.20;1.35;;;;;;;;;;5012268;28;20046;-86
2022/08/26 11:21:43;;;;;;;2.33;1.38;;;;;;;;;;5027009;28;20057;-90
2022/08/26 11:24:09;;;;;;;4.30;1.38;;;;;;;;;;5006605;28;20050;-90
2022/08/26 11:26:36;;;;;;;4.10;1.30;;;;;;;;;;5006525;28;20053;-90
2022/08/26 11:29:02;;;;;;;2.65;1.52;;;;;;;;;;5007775;28;20038;-91
2022/08/26 11:31:29;;;;;;;2.65;1.20;;;;;;;;;;5028874;28;20075;-92
2022/08/26 11:33:58;;;;;;;3.03;1.17;;;;;;;;;;5016598;28;20041;-92
2022/08/26 11:36:52;;;;;;;3.50;1.52;;;;;;;;;;5016505;28;20076;-93
2022/08/26 11:39:24;;;;;;;2.97;1.33;;;;;;;;;;5009941;28;20057;-89
2022/08/26 11:41:51;;;;;;;2.97;1.10;;;;;;;;;;5016891;28;20052;-93
2022/08/26 11:44:30;;;;;;;4.07;1.23;;;;;;;;;;5002677;28;20508;-88
2022/08/26 11:46:59;;;;;;;2.97;1.27;;;;;;;;;;5003897;28;20042;-90
2022/08/26 11:49:30;;;;;;;2.88;1.10;;;;;;;;;;5019232;28;20096;-87
2022/08/26 11:52:14;;;;;;;1.85;1.17;;;;;;;;;;5032499;28;20042;-88
2022/08/26 11:54:40;;;;;;;2.92;1.38;;;;;;;;;;5035500;28;20057;-91
2022/08/26 11:57:08;;;;;;;4.72;1.60;;;;;;;;;;5020248;28;20088;-92
2022/08/26 11:59:37;;;;;;;3.20;1.38;;;;;;;;;;5029728;28;20085;-88
2022/08/26 12:02:04;;;;;;;4.90;1.40;;;;;;;;;;5002629;28;20057;-91
2022/08/26 12:04:32;;;;;;;4.32;1.55;;;;;;;;;;5007235;28;20045;-91
2022/08/26 12:06:59;;;;;;;2.67;1.33;;;;;;;;;;5008595;28;20049;-90
2022/08/26 12:09:30;;;;;;;3.70;1.60;;;;;;;;;;5025629;28;20879;-92
2022/08/26 12:12:13;;;;;;;2.95;1.20;;;;;;;;;;5020691;28;20404;-91
2022/08/26 12:14:39;;;;;;;2.47;1.30;;;;;;;;;;5025441;28;20446;-91
2022/08/26 12:17:16;;;;;;;4.35;1.40;;;;;;;;;;5002944;28;20045;-90
2022/08/26 12:19:42;;;;;;;3.42;1.50;;;;;;;;;;5022169;23;20049;-94
2022/08/26 12:22:19;;;;;;;5.85;1.60;;;;;;;;;;4991491;28;20452;-91
2022/08/26 12:24:47;;;;;;;2.53;1.50;;;;;;;;;;5011928;28;20076;-93
2022/08/26 12:27:20;;;;;;;3.55;1.50;;;;;;;;;;5012255;28;20137;-93
2022/08/26 12:29:59;;;;;;;3.95;1.45;;;;;;;;;;5023978;28;20042;-92
2022/08/26 12:32:30;;;;;;;1.88;1.33;;;;;;;;;;5018682;28;20073;-90
2022/08/26 12:34:56;;;;;;;6.20;1.73;;;;;;;;;;5015091;28;20054;-91
2022/08/26 12:37:22;;;;;;;3.28;1.50;;;;;;;;;;4992051;28;20623;-92
2022/08/26 12:39:48;;;;;;;4.63;1.70;;;;;;;;;;4989473;28;20038;-90
2022/08/26 12:42:14;;;;;;;3.40;1.50;;;;;;;;;;5013719;28;20056;-94
2022/08/26 12:44:43;;;;;;;5.60;1.83;;;;;;;;;;4993891;28;20041;-91
2022/08/26 12:47:15;;;;;;;3.85;1.50;;;;;;;;;;5021663;28;20464;-94
2022/08/26 12:49:42;;;;;;;4.60;1.52;;;;;;;;;;5008464;28;20066;-93
2022/08/26 12:52:28;;;;;;;2.40;1.50;;;;;;;;;;4998764;28;20041;-92
2022/08/26 12:54:57;;;;;;;2.63;1.20;;;;;;;;;;5007805;28;20064;-94
2022/08/26 12:57:28;;;;;;;4.72;1.50;;;;;;;;;;5022744;28;20054;-93
2022/08/26 13:00:14;;;;;;;3.38;1.50;;;;;;;;;;5026506;28;20046;-93
2022/08/26 13:02:40;;;;;;;2.78;1.40;;;;;;;;;;5012372;28;20049;-94
2022/08/26 13:05:06;;;;;;;4.07;1.30;;;;;;;;;;5004086;28;20422;-93
2022/08/26 13:07:32;;;;;;;2.97;1.48;;;;;;;;;;5024450;28;20046;-91
2022/08/26 13:09:59;;;;;;;2.85;1.50;;;;;;;;;;5017031;28;20402;-93
2022/08/26 13:12:27;;;;;;;5.85;1.63;;;;;;;;;;5000968;28;20061;-93
2022/08/26 13:14:53;;;;;;;4.18;1.70;;;;;;;;;;5020589;28;20098;-94
2022/08/26 13:17:19;;;;;;;4.28;1.77;;;;;;;;;;5006919;28;20046;-86
2022/08/26 13:19:46;;;;;;;2.83;1.50;;;;;;;;;;5008227;28;20054;-87
2022/08/26 13:22:13;;;;;;;4.38;1.50;;;;;;;;;;5018812;28;20029;-87
2022/08/26 13:24:43;;;;;;;2.33;1.30;;;;;;;;;;5028094;28;20039;-93
2022/08/26 13:27:12;;;;;;;3.63;1.35;;;;;;;;;;5012177;28;20042;-89
2022/08/26 13:29:41;;;;;;;1.85;1.40;;;;;;;;;;5027518;28;20049;-90
2022/08/26 13:32:07;;;;;;;2.53;1.58;;;;;;;;;;5021358;28;20072;-89
2022/08/26 13:34:34;;;;;;;2.78;1.35;;;;;;;;;;5012663;28;20052;-94
2022/08/26 13:37:00;;;;;;;4.63;1.40;;;;;;;;;;5014710;28;20509;-90
2022/08/26 13:39:26;;;;;;;3.63;1.50;;;;;;;;;;5028635;28;20044;-92
2022/08/26 13:41:53;;;;;;;4.00;1.90;;;;;;;;;;5002249;28;20082;-84
2022/08/26 13:44:20;;;;;;;4.15;1.80;;;;;;;;;;4973199;28;20050;-84
2022/08/26 13:46:46;;;;;;;2.85;1.65;;;;;;;;;;4993928;28;20058;-84
2022/08/26 13:49:12;;;;;;;5.20;1.70;;;;;;;;;;4999782;28;20049;-83
2022/08/26 13:51:38;;;;;;;2.65;1.60;;;;;;;;;;5026636;28;20485;-86
2022/08/26 13:54:04;;;;;;;6.28;1.80;;;;;;;;;;5000523;28;20424;-84
2022/08/26 13:56:31;;;;;;;4.28;1.60;;;;;;;;;;4977479;28;20057;-85
2022/08/26 13:58:58;;;;;;;4.40;1.70;;;;;;;;;;5007507;28;20598;-85
2022/08/26 14:01:24;;;;;;;3.88;1.80;;;;;;;;;;5020142;28;20081;-86
2022/08/26 14:03:50;;;;;;;5.25;1.73;;;;;;;;;;5024804;28;20050;-86
2022/08/26 14:06:16;;;;;;;4.78;1.95;;;;;;;;;;4991249;28;20046;-86
2022/08/26 14:08:42;;;;;;;3.88;1.60;;;;;;;;;;4990256;28;20052;-87
2022/08/26 14:11:08;;;;;;;3.88;2.03;;;;;;;;;;5014116;28;20409;-89
2022/08/26 14:13:35;;;;;;;2.72;1.55;;;;;;;;;;4995874;28;20104;-85
2022/08/26 14:16:02;;;;;;;4.70;1.90;;;;;;;;;;5001077;28;20056;-88
2022/08/26 14:18:30;;;;;;;3.78;1.67;;;;;;;;;;4999030;28;20114;-86
2022/08/26 14:20:58;;;;;;;5.68;1.50;;;;;;;;;;5003017;28;20078;-86
2022/08/26 14:23:24;;;;;;;4.13;1.85;;;;;;;;;;4988912;28;20050;-88
2022/08/26 14:25:50;;;;;;;3.80;1.88;;;;;;;;;;4991872;28;20042;-89
2022/08/26 14:28:17;;;;;;;3.88;1.70;;;;;;;;;;4996133;28;20084;-89
2022/08/26 14:30:43;;;;;;;2.95;1.50;;;;;;;;;;4986027;28;20069;-87
2022/08/26 14:33:11;;;;;;;3.55;1.48;;;;;;;;;;5014792;28;20052;-89
2022/08/26 14:35:38;;;;;;;3.83;1.52;;;;;;;;;;5004918;28;20065;-85
2022/08/26 14:38:04;;;;;;;3.28;1.40;;;;;;;;;;4985667;28;20046;-88
2022/08/26 14:40:30;;;;;;;4.13;1.75;;;;;;;;;;5018696;28;20363;-85
2022/08/26 14:42:56;;;;;;;2.88;1.70;;;;;;;;;;5008790;28;20045;-87
2022/08/26 14:45:23;;;;;;;4.05;1.60;;;;;;;;;;4985109;28;20057;-87
2022/08/26 14:47:50;;;;;;;4.20;1.80;;;;;;;;;;4986637;28;20038;-89
2022/08/26 14:50:19;;;;;;;4.53;1.77;;;;;;;;;;4999821;28;20046;-89
2022/08/26 14:55:31;;;;;;;3.97;2.08;;;;;;;;;;4996758;28;20490;-89
2022/08/26 14:57:57;;;;;;;4.13;1.92;;;;;;;;;;5009044;28;20837;-92
2022/08/26 15:00:23;;;;;;;3.20;1.90;;;;;;;;;;4989425;28;20124;-91
2022/08/26 15:02:50;;;;;;;2.65;2.08;;;;;;;;;;4987616;28;20046;-83